¿Dónde queda Quinta do Castilho en Portugal?

 

Quinta do Castilho está situado en la región Santarem en Portugal!

Buscar el nombre de una ciudad:

Quinta da Costa, Quincé, Quingonde, Quinta da Lajeosa, Quinzage

Aquí usted encontrará la ubicación de Quinta do Castilho en un mapa.
Para ver cómo se ve en la actualidad, a continuación hay algunas fotos de la región con cámaras web en línea.
También puede encontrar la distancia a las principales ciudades de la región y para las ciudades en el resto de Portugal.

Todos los lugares del mundo llamados .


¿Dónde queda Quinta do Castilho en el mapa?




Webcams cerca de Quinta do Castilho

Vasco Carão › South: Garrocheira, Benavente − Airport.


Vasco Carão › South: Garrocheira, Benavente − Airport - El día
Actuales
Vasco Carão › South: Garrocheira, Benavente − Airport - Actuales

Abrantes › North-West: › North-West: Zona Alta (Torre).


Abrantes › North-West: › North-West: Zona Alta (Torre) - El día
Actuales
Abrantes › North-West: › North-West: Zona Alta (Torre) - Actuales

Benavente › North-East: AIrport, METAR: BENAV 180005Z 36004KT 17/14 Q1015.


Benavente › North-East: AIrport, METAR: BENAV 180005Z 36004KT 17/14 Q1015 - El día
Actuales
Benavente › North-East: AIrport, METAR: BENAV 180005Z 36004KT 17/14 Q1015 - Actuales

Webcams provided by webcams.travel


Distancias

¿Dónde queda Quinta do Castilho en relación con otros lugares?

Top 10 ciudades en Santarem y la distancia de Quinta do Castilho.

Ciudad#Poblaciónkmmillas
Santarém129385117
Entroncamento2198872113
Tomar3191683723
Torres Novas4145261912
Samora Correia5141544830
Abrantes6136464025
Ourém7127293522
Rio Maior8120642717
Fátima9117983421
Almeirim1011556138

Top 10 ciudades en Portugal y la distancia de Quinta do Castilho.

Ciudad # Poblaciónkmmillas
Lisbon15177988050
Porto2249630203126
Amadora31788568251
Braga4121393248154
Setúbal51171099056
Coimbra610658010062
Queluz71033988452
Funchal8980411053654
Vila Nova de Gaia970810201125
Loures10662307245



Alertas y advertencias en Portugal

Asesoramiento e información sobre viajes y seguridad en Portugal

Con una advertencia de viaje, los turistas pueden ser informados de los riesgos de seguridad durante las vacaciones o de viaje en un país extranjero.Estar informado acerca de los riesgos de secuestro, robo a mano armada, atentados, catástrofes naturales o guerras. No saben qué áreas son seguras en Portugal. Estar alerta, o evitar ciertas áreas cuando está de vacaciones en Portugal.

Alertas y advertencias



Información de viajes Portugal

Información sobre documentos de viaje, solicitudes de visados y el costo de una visa.
Información de Contacto embajadas en Portugal.
Los diferentes tipos de seguro de viaje.

Información de viajes

Info

Estadística y Geografía

Portugal se compone de 15299 ciudades en 20 regiones.

La región Santarem tiene 1174 ciudades.

Quinta do Castilho es el número 901 en la región Santarem.

La ciudad es el número 11105 en Portugal.

¿Dónde queda Quinta do Castilho en Portugal?